Beiseker, Canada
Current Conditions -  °F | °C
As of 10:00 PM on Wednesday 22 Oct 2014 (Local Time) from CYYC Reporting Station
Broken Clouds Broken Clouds  
Wind Chill: 52°   Ceiling: 21000
Heat Index: 52°   Visibility: 15mi
Dew Point: 32°   Wind: 9mph
Humidity: 47%   Direction: 210°SSW
Pressure: 29.62"   Gusts: NA
Location:  51.38°N, 113.53°W
Report Text: CYYC 230400Z 21008KT 15SM BKN210 11/00 A2962 RMK CI5 SLP050 DENSITY ALT 4300FT
Loading
Personal Weather Stations






























Interactive Weather Map New forecast layout! Learn more

10-Day Weather Forecast

Advertisements
Track Severe Weather on mobile